sensor_id;sensor_type;location;lat;lon;timestamp;temperature;humidity
40153;DHT22;26371;56.992;23.912;2022-09-29T00:01:58;8.40;99.90
40153;DHT22;26371;56.992;23.912;2022-09-29T00:04:36;8.30;99.90
40153;DHT22;26371;56.992;23.912;2022-09-29T00:07:11;8.40;99.90
40153;DHT22;26371;56.992;23.912;2022-09-29T00:09:42;8.30;99.90
40153;DHT22;26371;56.992;23.912;2022-09-29T00:12:12;8.40;99.90
40153;DHT22;26371;56.992;23.912;2022-09-29T00:14:41;8.30;99.90
40153;DHT22;26371;56.992;23.912;2022-09-29T00:17:14;8.30;99.90
40153;DHT22;26371;56.992;23.912;2022-09-29T00:19:43;8.30;99.90
40153;DHT22;26371;56.992;23.912;2022-09-29T00:22:13;8.30;99.90
40153;DHT22;26371;56.992;23.912;2022-09-29T00:24:42;8.40;99.90
40153;DHT22;26371;56.992;23.912;2022-09-29T00:27:13;8.30;99.90
40153;DHT22;26371;56.992;23.912;2022-09-29T00:29:42;8.30;99.90
40153;DHT22;26371;56.992;23.912;2022-09-29T00:32:11;8.30;99.90
40153;DHT22;26371;56.992;23.912;2022-09-29T00:34:40;8.30;99.90
40153;DHT22;26371;56.992;23.912;2022-09-29T00:37:09;8.30;99.90
40153;DHT22;26371;56.992;23.912;2022-09-29T00:39:39;8.30;99.90
40153;DHT22;26371;56.992;23.912;2022-09-29T00:42:09;8.30;99.90
40153;DHT22;26371;56.992;23.912;2022-09-29T00:45:11;8.30;99.90
40153;DHT22;26371;56.992;23.912;2022-09-29T00:47:46;8.20;99.90
40153;DHT22;26371;56.992;23.912;2022-09-29T00:50:20;8.20;99.90
40153;DHT22;26371;56.992;23.912;2022-09-29T00:52:52;8.30;99.90
40153;DHT22;26371;56.992;23.912;2022-09-29T00:55:28;8.20;99.90
40153;DHT22;26371;56.992;23.912;2022-09-29T00:58:02;8.20;99.90
40153;DHT22;26371;56.992;23.912;2022-09-29T01:00:36;8.10;99.90
40153;DHT22;26371;56.992;23.912;2022-09-29T01:03:07;8.20;99.90
40153;DHT22;26371;56.992;23.912;2022-09-29T01:05:42;8.10;99.90
40153;DHT22;26371;56.992;23.912;2022-09-29T01:08:15;8.10;99.90
40153;DHT22;26371;56.992;23.912;2022-09-29T01:10:47;8.10;99.90
40153;DHT22;26371;56.992;23.912;2022-09-29T01:13:16;8.20;99.90
40153;DHT22;26371;56.992;23.912;2022-09-29T01:15:45;8.10;99.90
40153;DHT22;26371;56.992;23.912;2022-09-29T01:18:16;8.10;99.90
40153;DHT22;26371;56.992;23.912;2022-09-29T01:20:52;8.10;99.90
40153;DHT22;26371;56.992;23.912;2022-09-29T01:23:49;8.10;99.90
40153;DHT22;26371;56.992;23.912;2022-09-29T01:26:50;8.10;99.90
40153;DHT22;26371;56.992;23.912;2022-09-29T01:32:32;8.10;99.90
40153;DHT22;26371;56.992;23.912;2022-09-29T01:35:10;8.10;99.90
40153;DHT22;26371;56.992;23.912;2022-09-29T01:37:51;8.10;99.90
40153;DHT22;26371;56.992;23.912;2022-09-29T01:40:28;8.10;99.90
40153;DHT22;26371;56.992;23.912;2022-09-29T01:43:03;8.10;99.90
40153;DHT22;26371;56.992;23.912;2022-09-29T01:45:37;8.10;99.90
40153;DHT22;26371;56.992;23.912;2022-09-29T01:48:10;8.00;99.90
40153;DHT22;26371;56.992;23.912;2022-09-29T01:50:44;8.00;99.90
40153;DHT22;26371;56.992;23.912;2022-09-29T01:53:22;8.00;99.90
40153;DHT22;26371;56.992;23.912;2022-09-29T01:55:56;8.00;99.90
40153;DHT22;26371;56.992;23.912;2022-09-29T01:58:29;8.00;99.90
40153;DHT22;26371;56.992;23.912;2022-09-29T02:01:03;8.00;99.90
40153;DHT22;26371;56.992;23.912;2022-09-29T02:03:39;8.00;99.90
40153;DHT22;26371;56.992;23.912;2022-09-29T02:06:11;8.00;99.90
40153;DHT22;26371;56.992;23.912;2022-09-29T02:08:45;8.00;99.90
40153;DHT22;26371;56.992;23.912;2022-09-29T02:11:16;8.00;99.90
40153;DHT22;26371;56.992;23.912;2022-09-29T02:13:49;7.90;99.90
40153;DHT22;26371;56.992;23.912;2022-09-29T02:16:22;7.90;99.90
40153;DHT22;26371;56.992;23.912;2022-09-29T02:18:55;7.90;99.90
40153;DHT22;26371;56.992;23.912;2022-09-29T02:21:26;7.90;99.90
40153;DHT22;26371;56.992;23.912;2022-09-29T02:23:56;7.90;99.90
40153;DHT22;26371;56.992;23.912;2022-09-29T02:26:28;7.90;99.90
40153;DHT22;26371;56.992;23.912;2022-09-29T02:29:01;7.90;99.90
40153;DHT22;26371;56.992;23.912;2022-09-29T02:31:32;7.90;99.90
40153;DHT22;26371;56.992;23.912;2022-09-29T02:34:03;7.90;99.90
40153;DHT22;26371;56.992;23.912;2022-09-29T02:36:43;7.90;99.90
40153;DHT22;26371;56.992;23.912;2022-09-29T02:39:23;7.90;99.90
40153;DHT22;26371;56.992;23.912;2022-09-29T02:42:01;7.90;99.90
40153;DHT22;26371;56.992;23.912;2022-09-29T02:44:46;7.90;99.90
40153;DHT22;26371;56.992;23.912;2022-09-29T02:47:36;7.90;99.90
40153;DHT22;26371;56.992;23.912;2022-09-29T02:50:28;7.80;99.90
40153;DHT22;26371;56.992;23.912;2022-09-29T02:53:04;7.90;99.90
40153;DHT22;26371;56.992;23.912;2022-09-29T02:55:40;7.90;99.90
40153;DHT22;26371;56.992;23.912;2022-09-29T02:58:16;7.90;99.90
40153;DHT22;26371;56.992;23.912;2022-09-29T03:00:46;7.80;99.90
40153;DHT22;26371;56.992;23.912;2022-09-29T03:03:16;7.80;99.90
40153;DHT22;26371;56.992;23.912;2022-09-29T03:05:47;7.90;99.90
40153;DHT22;26371;56.992;23.912;2022-09-29T03:08:15;7.80;99.90
40153;DHT22;26371;56.992;23.912;2022-09-29T03:10:44;7.90;99.90
40153;DHT22;26371;56.992;23.912;2022-09-29T03:13:13;7.90;99.90
40153;DHT22;26371;56.992;23.912;2022-09-29T03:15:42;7.80;99.90
40153;DHT22;26371;56.992;23.912;2022-09-29T03:18:11;7.90;99.90
40153;DHT22;26371;56.992;23.912;2022-09-29T03:20:40;7.80;99.90
40153;DHT22;26371;56.992;23.912;2022-09-29T03:23:11;7.80;99.90
40153;DHT22;26371;56.992;23.912;2022-09-29T03:25:39;7.80;99.90
40153;DHT22;26371;56.992;23.912;2022-09-29T03:28:09;7.80;99.90
40153;DHT22;26371;56.992;23.912;2022-09-29T03:30:38;7.80;99.90
40153;DHT22;26371;56.992;23.912;2022-09-29T03:33:07;7.90;99.90
40153;DHT22;26371;56.992;23.912;2022-09-29T03:35:36;7.90;99.90
40153;DHT22;26371;56.992;23.912;2022-09-29T03:38:11;7.80;99.90
40153;DHT22;26371;56.992;23.912;2022-09-29T03:40:40;7.80;99.90
40153;DHT22;26371;56.992;23.912;2022-09-29T03:43:09;7.80;99.90
40153;DHT22;26371;56.992;23.912;2022-09-29T03:45:47;7.80;99.90
40153;DHT22;26371;56.992;23.912;2022-09-29T03:48:16;7.80;99.90
40153;DHT22;26371;56.992;23.912;2022-09-29T03:50:51;7.80;99.90
40153;DHT22;26371;56.992;23.912;2022-09-29T03:53:22;7.80;99.90
40153;DHT22;26371;56.992;23.912;2022-09-29T03:55:51;7.80;99.90
40153;DHT22;26371;56.992;23.912;2022-09-29T03:58:20;7.80;99.90
40153;DHT22;26371;56.992;23.912;2022-09-29T04:00:48;7.70;99.90
40153;DHT22;26371;56.992;23.912;2022-09-29T04:03:18;7.80;99.90
40153;DHT22;26371;56.992;23.912;2022-09-29T04:05:47;7.80;99.90
40153;DHT22;26371;56.992;23.912;2022-09-29T04:08:16;7.80;99.90
40153;DHT22;26371;56.992;23.912;2022-09-29T04:10:47;7.80;99.90
40153;DHT22;26371;56.992;23.912;2022-09-29T04:13:15;7.80;99.90
40153;DHT22;26371;56.992;23.912;2022-09-29T04:15:46;7.80;99.90
40153;DHT22;26371;56.992;23.912;2022-09-29T04:18:15;7.80;99.90
40153;DHT22;26371;56.992;23.912;2022-09-29T04:20:44;7.80;99.90
40153;DHT22;26371;56.992;23.912;2022-09-29T04:23:13;7.80;99.90
40153;DHT22;26371;56.992;23.912;2022-09-29T04:25:43;7.80;99.90
40153;DHT22;26371;56.992;23.912;2022-09-29T04:28:14;7.80;99.90
40153;DHT22;26371;56.992;23.912;2022-09-29T04:30:43;7.80;99.90
40153;DHT22;26371;56.992;23.912;2022-09-29T04:33:11;7.80;99.90
40153;DHT22;26371;56.992;23.912;2022-09-29T04:35:40;7.80;99.90
40153;DHT22;26371;56.992;23.912;2022-09-29T04:38:09;7.80;99.90
40153;DHT22;26371;56.992;23.912;2022-09-29T04:40:38;7.80;99.90
40153;DHT22;26371;56.992;23.912;2022-09-29T04:43:07;7.80;99.90
40153;DHT22;26371;56.992;23.912;2022-09-29T04:45:38;7.80;99.90
40153;DHT22;26371;56.992;23.912;2022-09-29T04:48:07;7.80;99.90
40153;DHT22;26371;56.992;23.912;2022-09-29T04:50:36;7.80;99.90
40153;DHT22;26371;56.992;23.912;2022-09-29T04:53:05;7.80;99.90
40153;DHT22;26371;56.992;23.912;2022-09-29T04:55:36;7.80;99.90
40153;DHT22;26371;56.992;23.912;2022-09-29T04:58:05;7.80;99.90
40153;DHT22;26371;56.992;23.912;2022-09-29T05:00:34;7.80;99.90
40153;DHT22;26371;56.992;23.912;2022-09-29T05:03:04;7.80;99.90
40153;DHT22;26371;56.992;23.912;2022-09-29T05:05:33;7.80;99.90
40153;DHT22;26371;56.992;23.912;2022-09-29T05:08:02;7.80;99.90
40153;DHT22;26371;56.992;23.912;2022-09-29T05:10:33;7.70;99.90
40153;DHT22;26371;56.992;23.912;2022-09-29T05:13:02;7.80;99.90
40153;DHT22;26371;56.992;23.912;2022-09-29T05:15:33;7.70;99.90
40153;DHT22;26371;56.992;23.912;2022-09-29T05:18:02;7.70;99.90
40153;DHT22;26371;56.992;23.912;2022-09-29T05:20:32;7.80;99.90
40153;DHT22;26371;56.992;23.912;2022-09-29T05:23:13;7.80;99.90
40153;DHT22;26371;56.992;23.912;2022-09-29T05:25:42;7.70;99.90
40153;DHT22;26371;56.992;23.912;2022-09-29T05:28:15;7.70;99.90
40153;DHT22;26371;56.992;23.912;2022-09-29T05:30:46;7.80;99.90
40153;DHT22;26371;56.992;23.912;2022-09-29T05:33:15;7.80;99.90
40153;DHT22;26371;56.992;23.912;2022-09-29T05:35:45;7.80;99.90
40153;DHT22;26371;56.992;23.912;2022-09-29T05:38:14;7.80;99.90
40153;DHT22;26371;56.992;23.912;2022-09-29T05:40:43;7.80;99.90
40153;DHT22;26371;56.992;23.912;2022-09-29T05:43:11;7.80;99.90
40153;DHT22;26371;56.992;23.912;2022-09-29T05:45:40;7.80;99.90
40153;DHT22;26371;56.992;23.912;2022-09-29T05:48:10;7.80;99.90
40153;DHT22;26371;56.992;23.912;2022-09-29T05:50:39;7.80;99.90
40153;DHT22;26371;56.992;23.912;2022-09-29T05:53:11;7.80;99.90
40153;DHT22;26371;56.992;23.912;2022-09-29T05:55:40;7.80;99.90
40153;DHT22;26371;56.992;23.912;2022-09-29T05:58:08;7.80;99.90
40153;DHT22;26371;56.992;23.912;2022-09-29T06:00:37;7.80;99.90
40153;DHT22;26371;56.992;23.912;2022-09-29T06:03:06;7.80;99.90
40153;DHT22;26371;56.992;23.912;2022-09-29T06:05:39;7.80;99.90
40153;DHT22;26371;56.992;23.912;2022-09-29T06:08:09;7.70;99.90
40153;DHT22;26371;56.992;23.912;2022-09-29T06:10:38;7.70;99.90
40153;DHT22;26371;56.992;23.912;2022-09-29T06:13:07;7.70;99.90
40153;DHT22;26371;56.992;23.912;2022-09-29T06:15:36;7.80;99.90
40153;DHT22;26371;56.992;23.912;2022-09-29T06:18:05;7.80;99.90
40153;DHT22;26371;56.992;23.912;2022-09-29T06:20:33;7.80;99.90
40153;DHT22;26371;56.992;23.912;2022-09-29T06:23:05;7.80;99.90
40153;DHT22;26371;56.992;23.912;2022-09-29T06:25:36;7.90;99.90
40153;DHT22;26371;56.992;23.912;2022-09-29T06:28:04;7.90;99.90
40153;DHT22;26371;56.992;23.912;2022-09-29T06:30:33;8.00;99.90
40153;DHT22;26371;56.992;23.912;2022-09-29T06:33:02;8.00;99.90
40153;DHT22;26371;56.992;23.912;2022-09-29T06:35:31;8.00;99.90
40153;DHT22;26371;56.992;23.912;2022-09-29T06:38:19;8.00;99.90
40153;DHT22;26371;56.992;23.912;2022-09-29T06:40:50;8.00;99.90
40153;DHT22;26371;56.992;23.912;2022-09-29T06:43:21;8.00;99.90
40153;DHT22;26371;56.992;23.912;2022-09-29T06:45:50;8.10;99.90
40153;DHT22;26371;56.992;23.912;2022-09-29T06:48:19;8.10;99.90
40153;DHT22;26371;56.992;23.912;2022-09-29T06:50:47;8.10;99.90
40153;DHT22;26371;56.992;23.912;2022-09-29T06:53:32;8.20;99.90
40153;DHT22;26371;56.992;23.912;2022-09-29T06:56:08;8.20;99.90
40153;DHT22;26371;56.992;23.912;2022-09-29T06:58:38;8.20;99.90
40153;DHT22;26371;56.992;23.912;2022-09-29T07:01:08;8.20;99.90
40153;DHT22;26371;56.992;23.912;2022-09-29T07:03:40;8.20;99.90
40153;DHT22;26371;56.992;23.912;2022-09-29T07:06:09;8.20;99.90
40153;DHT22;26371;56.992;23.912;2022-09-29T07:08:46;8.30;99.90
40153;DHT22;26371;56.992;23.912;2022-09-29T07:11:18;8.30;99.90
40153;DHT22;26371;56.992;23.912;2022-09-29T07:13:51;8.30;99.90
40153;DHT22;26371;56.992;23.912;2022-09-29T07:16:23;8.30;99.90
40153;DHT22;26371;56.992;23.912;2022-09-29T07:18:52;8.40;99.90
40153;DHT22;26371;56.992;23.912;2022-09-29T07:21:21;8.50;99.90
40153;DHT22;26371;56.992;23.912;2022-09-29T07:23:57;8.50;99.90
40153;DHT22;26371;56.992;23.912;2022-09-29T07:26:30;8.60;99.90
40153;DHT22;26371;56.992;23.912;2022-09-29T07:28:58;8.60;99.90
40153;DHT22;26371;56.992;23.912;2022-09-29T07:31:28;8.70;99.90
40153;DHT22;26371;56.992;23.912;2022-09-29T07:34:15;8.70;99.90
40153;DHT22;26371;56.992;23.912;2022-09-29T07:36:44;8.80;99.90
40153;DHT22;26371;56.992;23.912;2022-09-29T07:39:13;8.80;99.90
40153;DHT22;26371;56.992;23.912;2022-09-29T07:41:44;8.80;99.90
40153;DHT22;26371;56.992;23.912;2022-09-29T07:44:13;8.80;99.90
40153;DHT22;26371;56.992;23.912;2022-09-29T07:46:42;8.80;99.90
40153;DHT22;26371;56.992;23.912;2022-09-29T07:49:11;8.80;99.90
40153;DHT22;26371;56.992;23.912;2022-09-29T07:51:41;8.90;99.90
40153;DHT22;26371;56.992;23.912;2022-09-29T07:54:10;8.90;99.90
40153;DHT22;26371;56.992;23.912;2022-09-29T07:56:39;8.90;99.90
40153;DHT22;26371;56.992;23.912;2022-09-29T07:59:13;8.90;99.90
40153;DHT22;26371;56.992;23.912;2022-09-29T08:01:42;8.90;99.90
40153;DHT22;26371;56.992;23.912;2022-09-29T08:04:14;8.90;99.90
40153;DHT22;26371;56.992;23.912;2022-09-29T08:06:45;8.90;99.90
40153;DHT22;26371;56.992;23.912;2022-09-29T08:09:15;9.00;99.90
40153;DHT22;26371;56.992;23.912;2022-09-29T08:11:44;8.90;99.90
40153;DHT22;26371;56.992;23.912;2022-09-29T08:14:18;8.90;99.90
40153;DHT22;26371;56.992;23.912;2022-09-29T08:16:49;9.00;99.90
40153;DHT22;26371;56.992;23.912;2022-09-29T08:19:19;8.90;99.90
40153;DHT22;26371;56.992;23.912;2022-09-29T08:21:48;9.00;99.90
40153;DHT22;26371;56.992;23.912;2022-09-29T08:24:17;9.00;99.90
40153;DHT22;26371;56.992;23.912;2022-09-29T08:26:46;9.00;99.90
40153;DHT22;26371;56.992;23.912;2022-09-29T08:29:19;9.00;99.90
40153;DHT22;26371;56.992;23.912;2022-09-29T08:31:48;9.10;99.90
40153;DHT22;26371;56.992;23.912;2022-09-29T08:47:15;9.20;99.90
40153;DHT22;26371;56.992;23.912;2022-09-29T08:49:47;9.20;99.90
40153;DHT22;26371;56.992;23.912;2022-09-29T08:52:20;9.20;99.90
40153;DHT22;26371;56.992;23.912;2022-09-29T08:54:54;9.20;99.90
40153;DHT22;26371;56.992;23.912;2022-09-29T08:57:25;9.20;99.90
40153;DHT22;26371;56.992;23.912;2022-09-29T08:59:57;9.20;99.90
40153;DHT22;26371;56.992;23.912;2022-09-29T09:02:53;9.10;99.90
40153;DHT22;26371;56.992;23.912;2022-09-29T09:08:52;9.10;99.90
40153;DHT22;26371;56.992;23.912;2022-09-29T09:11:37;9.00;99.90
40153;DHT22;26371;56.992;23.912;2022-09-29T09:14:19;9.00;99.90
40153;DHT22;26371;56.992;23.912;2022-09-29T09:17:05;9.10;99.90
40153;DHT22;26371;56.992;23.912;2022-09-29T09:19:52;9.00;99.90
40153;DHT22;26371;56.992;23.912;2022-09-29T09:22:33;8.90;99.90
40153;DHT22;26371;56.992;23.912;2022-09-29T09:25:09;8.90;99.90
40153;DHT22;26371;56.992;23.912;2022-09-29T09:27:51;8.90;99.90
40153;DHT22;26371;56.992;23.912;2022-09-29T09:30:28;9.00;99.90
40153;DHT22;26371;56.992;23.912;2022-09-29T09:33:05;9.00;99.90
40153;DHT22;26371;56.992;23.912;2022-09-29T09:35:52;9.00;99.90
40153;DHT22;26371;56.992;23.912;2022-09-29T09:38:36;9.00;99.90
40153;DHT22;26371;56.992;23.912;2022-09-29T09:41:08;9.00;99.90
40153;DHT22;26371;56.992;23.912;2022-09-29T09:43:38;9.00;99.90
40153;DHT22;26371;56.992;23.912;2022-09-29T09:46:14;9.00;99.90
40153;DHT22;26371;56.992;23.912;2022-09-29T09:48:58;9.00;99.90
40153;DHT22;26371;56.992;23.912;2022-09-29T09:51:41;9.00;99.90
40153;DHT22;26371;56.992;23.912;2022-09-29T09:54:25;9.00;99.90
40153;DHT22;26371;56.992;23.912;2022-09-29T09:57:23;9.10;99.90
40153;DHT22;26371;56.992;23.912;2022-09-29T10:00:04;9.10;99.90
40153;DHT22;26371;56.992;23.912;2022-09-29T10:02:44;9.00;99.90
40153;DHT22;26371;56.992;23.912;2022-09-29T10:05:19;9.00;99.90
40153;DHT22;26371;56.992;23.912;2022-09-29T10:07:54;9.00;99.90
40153;DHT22;26371;56.992;23.912;2022-09-29T10:10:26;9.00;99.90
40153;DHT22;26371;56.992;23.912;2022-09-29T10:13:01;9.00;99.90
40153;DHT22;26371;56.992;23.912;2022-09-29T10:15:37;9.00;99.90
40153;DHT22;26371;56.992;23.912;2022-09-29T10:18:13;9.00;99.90
40153;DHT22;26371;56.992;23.912;2022-09-29T10:20:49;9.00;99.90
40153;DHT22;26371;56.992;23.912;2022-09-29T10:23:23;9.10;99.90
40153;DHT22;26371;56.992;23.912;2022-09-29T10:25:57;9.10;99.90
40153;DHT22;26371;56.992;23.912;2022-09-29T10:28:37;9.10;99.90
40153;DHT22;26371;56.992;23.912;2022-09-29T10:31:15;9.00;99.90
40153;DHT22;26371;56.992;23.912;2022-09-29T10:33:53;9.10;99.90
40153;DHT22;26371;56.992;23.912;2022-09-29T10:36:28;9.10;99.90
40153;DHT22;26371;56.992;23.912;2022-09-29T10:38:59;9.10;99.90
40153;DHT22;26371;56.992;23.912;2022-09-29T10:41:49;9.00;99.90
40153;DHT22;26371;56.992;23.912;2022-09-29T10:44:21;9.00;99.90
40153;DHT22;26371;56.992;23.912;2022-09-29T10:46:53;9.00;99.90
40153;DHT22;26371;56.992;23.912;2022-09-29T10:49:27;9.00;99.90
40153;DHT22;26371;56.992;23.912;2022-09-29T10:52:02;9.00;99.90
40153;DHT22;26371;56.992;23.912;2022-09-29T10:54:34;9.10;99.90
40153;DHT22;26371;56.992;23.912;2022-09-29T10:57:11;9.00;99.90
40153;DHT22;26371;56.992;23.912;2022-09-29T10:59:50;9.00;99.90
40153;DHT22;26371;56.992;23.912;2022-09-29T11:02:26;9.00;99.90
40153;DHT22;26371;56.992;23.912;2022-09-29T11:05:02;9.10;99.90
40153;DHT22;26371;56.992;23.912;2022-09-29T11:07:42;9.20;99.90
40153;DHT22;26371;56.992;23.912;2022-09-29T11:18:00;9.10;99.90
40153;DHT22;26371;56.992;23.912;2022-09-29T11:20:31;9.30;99.90
40153;DHT22;26371;56.992;23.912;2022-09-29T11:23:13;9.30;99.90
40153;DHT22;26371;56.992;23.912;2022-09-29T11:26:06;9.40;99.90
40153;DHT22;26371;56.992;23.912;2022-09-29T11:29:19;9.20;99.90
40153;DHT22;26371;56.992;23.912;2022-09-29T11:32:17;9.20;99.90
40153;DHT22;26371;56.992;23.912;2022-09-29T11:35:05;9.20;99.90
40153;DHT22;26371;56.992;23.912;2022-09-29T11:41:04;9.20;99.90
40153;DHT22;26371;56.992;23.912;2022-09-29T11:43:45;9.20;99.90
40153;DHT22;26371;56.992;23.912;2022-09-29T11:46:33;9.30;99.90
40153;DHT22;26371;56.992;23.912;2022-09-29T11:49:18;9.20;99.90
40153;DHT22;26371;56.992;23.912;2022-09-29T11:52:00;9.20;99.90
40153;DHT22;26371;56.992;23.912;2022-09-29T11:54:53;9.20;99.90
40153;DHT22;26371;56.992;23.912;2022-09-29T11:57:49;9.10;99.90
40153;DHT22;26371;56.992;23.912;2022-09-29T12:00:41;9.10;99.90
40153;DHT22;26371;56.992;23.912;2022-09-29T12:03:30;9.00;99.90
40153;DHT22;26371;56.992;23.912;2022-09-29T12:06:24;9.00;99.90
40153;DHT22;26371;56.992;23.912;2022-09-29T12:09:07;9.10;99.90
40153;DHT22;26371;56.992;23.912;2022-09-29T12:11:54;9.00;99.90
40153;DHT22;26371;56.992;23.912;2022-09-29T12:15:17;9.00;99.90
40153;DHT22;26371;56.992;23.912;2022-09-29T12:17:55;9.10;99.90
40153;DHT22;26371;56.992;23.912;2022-09-29T12:20:29;9.10;99.90
40153;DHT22;26371;56.992;23.912;2022-09-29T12:23:08;9.10;99.90
40153;DHT22;26371;56.992;23.912;2022-09-29T12:25:42;9.20;99.90
40153;DHT22;26371;56.992;23.912;2022-09-29T12:28:23;9.30;99.90
40153;DHT22;26371;56.992;23.912;2022-09-29T12:30:59;9.30;99.90
40153;DHT22;26371;56.992;23.912;2022-09-29T12:33:33;9.40;99.90
40153;DHT22;26371;56.992;23.912;2022-09-29T12:39:33;9.40;99.90
40153;DHT22;26371;56.992;23.912;2022-09-29T12:42:14;9.40;99.90
40153;DHT22;26371;56.992;23.912;2022-09-29T12:44:52;9.40;99.90
40153;DHT22;26371;56.992;23.912;2022-09-29T12:47:44;9.40;99.90
40153;DHT22;26371;56.992;23.912;2022-09-29T12:50:25;9.40;99.90
40153;DHT22;26371;56.992;23.912;2022-09-29T12:53:08;9.40;99.90
40153;DHT22;26371;56.992;23.912;2022-09-29T12:55:48;9.30;99.90
40153;DHT22;26371;56.992;23.912;2022-09-29T12:58:37;9.30;99.90
40153;DHT22;26371;56.992;23.912;2022-09-29T13:01:22;9.30;99.90
40153;DHT22;26371;56.992;23.912;2022-09-29T13:04:11;9.30;99.90
40153;DHT22;26371;56.992;23.912;2022-09-29T13:10:24;9.40;99.90
40153;DHT22;26371;56.992;23.912;2022-09-29T13:13:35;9.50;99.90
40153;DHT22;26371;56.992;23.912;2022-09-29T13:16:41;9.60;99.90
40153;DHT22;26371;56.992;23.912;2022-09-29T13:22:41;9.70;99.90
40153;DHT22;26371;56.992;23.912;2022-09-29T13:25:25;9.70;99.90
40153;DHT22;26371;56.992;23.912;2022-09-29T13:27:59;9.70;99.90
40153;DHT22;26371;56.992;23.912;2022-09-29T13:30:40;9.70;99.90
40153;DHT22;26371;56.992;23.912;2022-09-29T13:33:18;9.70;99.90
40153;DHT22;26371;56.992;23.912;2022-09-29T13:35:52;9.70;99.90
40153;DHT22;26371;56.992;23.912;2022-09-29T13:38:28;9.70;99.90
40153;DHT22;26371;56.992;23.912;2022-09-29T13:41:13;9.70;99.90
40153;DHT22;26371;56.992;23.912;2022-09-29T13:44:18;9.70;99.90
40153;DHT22;26371;56.992;23.912;2022-09-29T13:46:52;9.70;99.90
40153;DHT22;26371;56.992;23.912;2022-09-29T13:49:28;9.70;99.90
40153;DHT22;26371;56.992;23.912;2022-09-29T13:52:04;9.70;99.90
40153;DHT22;26371;56.992;23.912;2022-09-29T13:58:22;9.60;99.90
40153;DHT22;26371;56.992;23.912;2022-09-29T14:01:00;9.60;99.90
40153;DHT22;26371;56.992;23.912;2022-09-29T14:03:37;9.60;99.90
40153;DHT22;26371;56.992;23.912;2022-09-29T14:06:12;9.70;99.90
40153;DHT22;26371;56.992;23.912;2022-09-29T14:09:05;9.60;99.90
40153;DHT22;26371;56.992;23.912;2022-09-29T14:11:39;9.60;99.90
40153;DHT22;26371;56.992;23.912;2022-09-29T14:14:16;9.60;99.90
40153;DHT22;26371;56.992;23.912;2022-09-29T14:16:52;9.60;99.90
40153;DHT22;26371;56.992;23.912;2022-09-29T14:22:50;9.60;99.90
40153;DHT22;26371;56.992;23.912;2022-09-29T14:25:52;9.70;99.90
40153;DHT22;26371;56.992;23.912;2022-09-29T14:28:31;9.70;99.90
40153;DHT22;26371;56.992;23.912;2022-09-29T14:31:03;9.70;99.90
40153;DHT22;26371;56.992;23.912;2022-09-29T14:33:35;9.70;99.90
40153;DHT22;26371;56.992;23.912;2022-09-29T14:36:11;9.60;99.90
40153;DHT22;26371;56.992;23.912;2022-09-29T14:38:43;9.60;99.90
40153;DHT22;26371;56.992;23.912;2022-09-29T14:41:39;9.70;99.90
40153;DHT22;26371;56.992;23.912;2022-09-29T14:44:15;9.70;99.90
40153;DHT22;26371;56.992;23.912;2022-09-29T14:46:57;9.70;99.90
40153;DHT22;26371;56.992;23.912;2022-09-29T14:50:20;9.70;99.90
40153;DHT22;26371;56.992;23.912;2022-09-29T14:53:34;9.70;99.90
40153;DHT22;26371;56.992;23.912;2022-09-29T14:58:46;9.80;99.90
40153;DHT22;26371;56.992;23.912;2022-09-29T15:01:26;9.80;99.90
40153;DHT22;26371;56.992;23.912;2022-09-29T15:03:57;9.70;99.90
40153;DHT22;26371;56.992;23.912;2022-09-29T15:06:32;9.70;99.90
40153;DHT22;26371;56.992;23.912;2022-09-29T15:09:10;9.70;99.90
40153;DHT22;26371;56.992;23.912;2022-09-29T15:11:47;9.70;99.90
40153;DHT22;26371;56.992;23.912;2022-09-29T15:14:23;9.70;99.90
40153;DHT22;26371;56.992;23.912;2022-09-29T15:17:04;9.60;99.90
40153;DHT22;26371;56.992;23.912;2022-09-29T15:19:52;9.60;99.90
40153;DHT22;26371;56.992;23.912;2022-09-29T15:25:28;9.60;99.90
40153;DHT22;26371;56.992;23.912;2022-09-29T15:28:00;9.60;99.90
40153;DHT22;26371;56.992;23.912;2022-09-29T15:30:30;9.60;99.90
40153;DHT22;26371;56.992;23.912;2022-09-29T15:33:17;9.60;99.90
40153;DHT22;26371;56.992;23.912;2022-09-29T15:35:50;9.60;99.90
40153;DHT22;26371;56.992;23.912;2022-09-29T15:38:32;9.50;99.90
40153;DHT22;26371;56.992;23.912;2022-09-29T15:41:12;9.50;99.90
40153;DHT22;26371;56.992;23.912;2022-09-29T15:43:42;9.50;99.90
40153;DHT22;26371;56.992;23.912;2022-09-29T15:46:17;9.40;99.90
40153;DHT22;26371;56.992;23.912;2022-09-29T15:49:14;9.40;99.90
40153;DHT22;26371;56.992;23.912;2022-09-29T15:51:53;9.30;99.90
40153;DHT22;26371;56.992;23.912;2022-09-29T15:54:23;9.30;99.90
40153;DHT22;26371;56.992;23.912;2022-09-29T15:56:53;9.20;99.90
40153;DHT22;26371;56.992;23.912;2022-09-29T15:59:42;9.20;99.90
40153;DHT22;26371;56.992;23.912;2022-09-29T16:02:25;9.20;99.90
40153;DHT22;26371;56.992;23.912;2022-09-29T16:05:00;9.20;99.90
40153;DHT22;26371;56.992;23.912;2022-09-29T16:07:32;9.20;99.90
40153;DHT22;26371;56.992;23.912;2022-09-29T16:10:05;9.10;99.90
40153;DHT22;26371;56.992;23.912;2022-09-29T16:12:39;9.10;99.90
40153;DHT22;26371;56.992;23.912;2022-09-29T16:15:19;9.10;99.90
40153;DHT22;26371;56.992;23.912;2022-09-29T16:17:50;9.10;99.90
40153;DHT22;26371;56.992;23.912;2022-09-29T16:20:25;9.00;99.90
40153;DHT22;26371;56.992;23.912;2022-09-29T16:22:56;9.00;99.90
40153;DHT22;26371;56.992;23.912;2022-09-29T16:25:34;9.00;99.90
40153;DHT22;26371;56.992;23.912;2022-09-29T16:28:03;9.00;99.90
40153;DHT22;26371;56.992;23.912;2022-09-29T16:30:35;8.90;99.90
40153;DHT22;26371;56.992;23.912;2022-09-29T16:33:13;8.90;99.90
40153;DHT22;26371;56.992;23.912;2022-09-29T16:35:52;8.90;99.90
40153;DHT22;26371;56.992;23.912;2022-09-29T16:38:32;8.80;99.90
40153;DHT22;26371;56.992;23.912;2022-09-29T16:41:14;8.80;99.90
40153;DHT22;26371;56.992;23.912;2022-09-29T16:43:43;8.80;99.90
40153;DHT22;26371;56.992;23.912;2022-09-29T16:46:15;8.80;99.90
40153;DHT22;26371;56.992;23.912;2022-09-29T16:48:45;8.70;99.90
40153;DHT22;26371;56.992;23.912;2022-09-29T16:51:19;8.70;99.90
40153;DHT22;26371;56.992;23.912;2022-09-29T16:54:05;8.70;99.90
40153;DHT22;26371;56.992;23.912;2022-09-29T16:56:35;8.70;99.90
40153;DHT22;26371;56.992;23.912;2022-09-29T16:59:10;8.60;99.90
40153;DHT22;26371;56.992;23.912;2022-09-29T17:01:40;8.60;99.90
40153;DHT22;26371;56.992;23.912;2022-09-29T17:04:10;8.60;99.90
40153;DHT22;26371;56.992;23.912;2022-09-29T17:06:42;8.60;99.90
40153;DHT22;26371;56.992;23.912;2022-09-29T17:09:17;8.60;99.90
40153;DHT22;26371;56.992;23.912;2022-09-29T17:11:48;8.50;99.90
40153;DHT22;26371;56.992;23.912;2022-09-29T17:14:21;8.50;99.90
40153;DHT22;26371;56.992;23.912;2022-09-29T17:16:50;8.50;99.90